Pagrindinis puslapis
METAR-TAF:

METAR-TAF

Oro uostai :

Russian Mission, Aliaska, Jungtinės Amerikos Valstijos

platuma: 61-46-30N, ilguma: 161-19-10W, Aukštis: 16 m

Dabartinis oras

Ataskaita buvo paskelbta 54 minutes, ne 20:56 UTC
Vėjas 4 kt iš Rytų/Pietryčių
Temperatūra 6°C
Drėgmė 75%
Slėgis 1002 hPa
Matomumas: 16.1 km
Giedras dangus

METAR: PARS 212056Z AUTO 12004KT 10SM CLR 06/02 A2959 RMK AO2 SLP024 T00560017 58015 $

Laikas: 13:50 (21:50 UTC)


TAF: trūkstamas

Orai ataskaitas ir orų prognozės (METAR, TAF).

turimą stotys yra geltonos ir raudonos taškus žemėlapyje.

Perkelti pele per norėdami pamatyti stoties vardą.

Tada spustelėkite, norėdami matyti oro stebėjimo ir prognozės.

Norėdami pakeisti žemėlapį: spustelėkite ant žalios mygtukų su juodo kryžiaus žemyn,; žalią mygtuką su brūkšneliu, jei norite nutolinti; arba žalių rodyklių gretimoms žemėlapius.


METAR-TAF: